createdAt,value
2018-03-26T00:02:23.760Z,43.64
2018-03-26T00:04:51.518Z,43.29
2018-03-26T00:07:19.391Z,43.17
2018-03-26T00:09:47.051Z,44.68
2018-03-26T00:12:14.918Z,44.42
2018-03-26T00:14:42.683Z,43.79
2018-03-26T00:17:10.550Z,43.35
2018-03-26T00:19:38.267Z,43.32
2018-03-26T00:22:06.078Z,43.68
2018-03-26T00:24:33.848Z,43.57
2018-03-26T00:27:01.708Z,43.42
2018-03-26T00:29:29.432Z,43.02
2018-03-26T00:31:57.238Z,43.42
2018-03-26T00:34:25.002Z,43.36
2018-03-26T00:36:52.767Z,43.62
2018-03-26T00:39:20.534Z,43.39
2018-03-26T00:41:48.288Z,43.33
2018-03-26T00:44:16.033Z,43.38
2018-03-26T00:46:43.836Z,42.98
2018-03-26T00:49:11.553Z,43.17
2018-03-26T00:51:39.455Z,43.14
2018-03-26T00:54:07.219Z,43.20
2018-03-26T00:56:35.088Z,43.42
2018-03-26T00:59:02.849Z,43.03
2018-03-26T01:01:30.673Z,42.38
2018-03-26T01:03:58.587Z,42.78
2018-03-26T01:06:26.438Z,42.95
2018-03-26T01:08:54.318Z,42.75
2018-03-26T01:11:22.189Z,43.11
2018-03-26T01:13:49.907Z,43.00
2018-03-26T01:16:17.603Z,42.83
2018-03-26T01:18:45.376Z,41.91
2018-03-26T01:21:13.141Z,41.63
2018-03-26T01:23:40.849Z,41.96
2018-03-26T01:26:08.670Z,42.33
2018-03-26T01:28:36.386Z,42.49
2018-03-26T01:31:04.205Z,42.59
2018-03-26T01:33:32.066Z,42.96
2018-03-26T01:35:59.780Z,42.66
2018-03-26T01:38:27.594Z,42.49
2018-03-26T01:40:55.461Z,42.76
2018-03-26T01:43:23.331Z,43.18
2018-03-26T01:45:51.095Z,43.59
2018-03-26T01:48:18.965Z,43.65
2018-03-26T01:50:46.779Z,43.88
2018-03-26T01:53:14.650Z,43.99
2018-03-26T01:55:42.564Z,44.04
2018-03-26T01:58:10.426Z,43.96
2018-03-26T02:00:38.158Z,43.73
2018-03-26T02:03:05.912Z,43.15
2018-03-26T02:05:33.719Z,43.33
2018-03-26T02:08:01.598Z,43.22
2018-03-26T02:10:29.350Z,43.33
2018-03-26T02:12:57.217Z,43.29
2018-03-26T02:15:24.943Z,43.18
2018-03-26T02:17:52.686Z,43.12
2018-03-26T02:20:20.511Z,43.03
2018-03-26T02:22:48.377Z,42.96
2018-03-26T02:25:16.111Z,42.98
2018-03-26T02:27:43.807Z,43.00
2018-03-26T02:30:11.673Z,42.91
2018-03-26T02:32:39.537Z,42.33
2018-03-26T02:35:07.254Z,42.12
2018-03-26T02:37:35.377Z,42.15
2018-03-26T02:40:03.035Z,42.06
2018-03-26T02:42:30.800Z,41.74
2018-03-26T02:44:58.525Z,41.72
2018-03-26T02:47:26.329Z,41.85
2018-03-26T02:49:54.060Z,42.06
2018-03-26T02:52:21.817Z,42.21
2018-03-26T02:54:49.599Z,41.92
2018-03-26T02:57:17.353Z,41.94
2018-03-26T02:59:45.151Z,42.30
2018-03-26T03:02:13.026Z,42.52
2018-03-26T03:04:40.782Z,42.92
2018-03-26T03:07:08.557Z,43.68
2018-03-26T03:09:36.206Z,44.31
2018-03-26T03:12:04.025Z,45.39
2018-03-26T03:14:31.851Z,45.54
2018-03-26T03:16:59.706Z,45.27
2018-03-26T03:19:27.573Z,44.80
2018-03-26T03:21:55.440Z,44.64
2018-03-26T03:24:23.204Z,44.82
2018-03-26T03:26:51.022Z,46.93
2018-03-26T03:29:18.838Z,48.21
2018-03-26T03:31:46.703Z,48.02
2018-03-26T03:34:14.366Z,48.38
2018-03-26T03:36:42.128Z,48.40
2018-03-26T03:39:09.858Z,47.86
2018-03-26T03:41:37.600Z,45.29
2018-03-26T03:44:05.387Z,45.21
2018-03-26T03:46:33.129Z,45.38
2018-03-26T03:49:01.053Z,46.66
2018-03-26T03:51:28.715Z,45.95
2018-03-26T03:53:56.582Z,45.56
2018-03-26T03:56:24.300Z,45.77
2018-03-26T03:58:52.040Z,45.84
2018-03-26T04:01:19.786Z,45.61
2018-03-26T04:03:47.536Z,45.84
2018-03-26T04:06:15.306Z,46.63
2018-03-26T04:08:43.228Z,45.35
2018-03-26T04:11:11.035Z,45.14
2018-03-26T04:13:38.907Z,44.51
2018-03-26T04:16:06.633Z,44.03
2018-03-26T04:18:34.433Z,43.63
2018-03-26T04:21:02.196Z,43.82
2018-03-26T04:23:30.034Z,44.09
2018-03-26T04:25:57.767Z,43.94
2018-03-26T04:28:25.592Z,44.39
2018-03-26T04:30:53.336Z,43.94
2018-03-26T04:33:21.118Z,43.76
2018-03-26T04:35:48.884Z,43.63
2018-03-26T04:38:16.853Z,43.72
2018-03-26T04:40:44.568Z,43.67
2018-03-26T04:43:12.382Z,43.61
2018-03-26T04:45:40.147Z,43.77
2018-03-26T04:48:08.014Z,43.87
2018-03-26T04:50:35.740Z,43.49
2018-03-26T04:53:03.543Z,43.55
2018-03-26T04:55:31.307Z,43.18
2018-03-26T04:57:59.073Z,42.99
2018-03-26T05:00:26.799Z,43.03
2018-03-26T05:02:54.539Z,43.38
2018-03-26T05:05:22.365Z,43.78
2018-03-26T05:07:50.199Z,43.61
2018-03-26T05:10:17.996Z,43.71
2018-03-26T05:12:45.761Z,43.50
2018-03-26T05:15:13.526Z,43.61
2018-03-26T05:17:41.391Z,43.64
2018-03-26T05:20:09.161Z,43.63
2018-03-26T05:22:37.022Z,43.60
2018-03-26T05:25:04.841Z,43.48
2018-03-26T05:27:32.654Z,43.29
2018-03-26T05:30:00.484Z,43.38
2018-03-26T05:32:28.237Z,43.34
2018-03-26T05:34:55.910Z,42.69
2018-03-26T05:37:23.711Z,42.70
2018-03-26T05:39:51.579Z,42.78
2018-03-26T05:42:19.444Z,42.42
2018-03-26T05:44:47.166Z,42.44
2018-03-26T05:47:14.863Z,42.34
2018-03-26T05:49:42.635Z,42.07
2018-03-26T05:52:10.504Z,42.69
2018-03-26T05:54:38.360Z,42.80
2018-03-26T05:57:06.145Z,42.83
2018-03-26T05:59:34.002Z,42.32
2018-03-26T06:02:01.767Z,42.68
2018-03-26T06:04:29.633Z,42.96
2018-03-26T06:06:57.292Z,43.15
2018-03-26T06:09:25.161Z,43.07
2018-03-26T06:11:52.928Z,43.32
2018-03-26T06:14:20.792Z,43.95
2018-03-26T06:17:00.435Z,44.23
2018-03-26T06:19:28.235Z,44.49
2018-03-26T06:21:55.974Z,44.60
2018-03-26T06:24:23.829Z,44.79
2018-03-26T06:26:51.698Z,45.31
2018-03-26T06:29:19.539Z,45.60
2018-03-26T06:31:47.283Z,45.98
2018-03-26T06:34:15.196Z,46.33
2018-03-26T06:39:49.300Z,46.89
2018-03-26T06:42:17.093Z,46.93
2018-03-26T06:44:44.961Z,47.33
2018-03-26T06:47:12.790Z,47.05
2018-03-26T06:49:40.552Z,47.13
2018-03-26T06:52:08.255Z,46.92
2018-03-26T06:54:36.123Z,47.10
2018-03-26T06:57:03.896Z,47.04
2018-03-26T06:59:31.871Z,48.18
2018-03-26T07:01:59.618Z,48.60
2018-03-26T07:04:27.563Z,48.38
2018-03-26T07:06:55.320Z,48.77
2018-03-26T07:09:23.162Z,48.52
2018-03-26T07:11:50.880Z,47.73
2018-03-26T07:14:18.748Z,47.21
2018-03-26T07:16:46.464Z,46.98
2018-03-26T07:19:14.224Z,47.33
2018-03-26T07:21:42.069Z,47.29
2018-03-26T07:24:09.808Z,46.74
2018-03-26T07:26:37.569Z,48.10
2018-03-26T07:29:05.436Z,47.60
2018-03-26T07:31:33.157Z,48.12
2018-03-26T07:34:00.965Z,47.64
2018-03-26T07:36:28.730Z,50.59
2018-03-26T07:38:56.459Z,52.63
2018-03-26T07:41:24.159Z,51.03
2018-03-26T07:43:52.126Z,49.45
2018-03-26T07:46:19.800Z,48.44
2018-03-26T07:48:47.657Z,48.72
2018-03-26T07:51:15.614Z,49.00
2018-03-26T07:53:43.355Z,51.97
2018-03-26T07:56:11.154Z,51.09
2018-03-26T07:58:39.019Z,50.43
2018-03-26T08:01:06.728Z,49.53
2018-03-26T08:03:34.651Z,49.13
2018-03-26T08:06:02.363Z,48.88
2018-03-26T08:08:30.184Z,48.30
2018-03-26T08:10:57.944Z,47.71
2018-03-26T08:13:25.809Z,47.21
2018-03-26T08:15:53.575Z,46.36
2018-03-26T08:18:21.442Z,45.60
2018-03-26T08:20:49.209Z,45.46
2018-03-26T08:23:17.073Z,47.43
2018-03-26T08:25:44.793Z,49.81
2018-03-26T08:28:12.602Z,49.11
2018-03-26T08:30:40.560Z,48.82
2018-03-26T08:33:08.394Z,48.29
2018-03-26T08:35:36.202Z,47.88
2018-03-26T08:38:03.974Z,47.46
2018-03-26T08:40:31.699Z,47.33
2018-03-26T08:42:59.458Z,47.18
2018-03-26T08:45:27.261Z,47.23
2018-03-26T08:47:54.967Z,47.10
2018-03-26T08:50:22.921Z,47.07
2018-03-26T08:52:50.759Z,46.95
2018-03-26T08:55:18.696Z,46.62
2018-03-26T08:57:46.500Z,46.32
2018-03-26T09:00:14.448Z,46.43
2018-03-26T09:02:42.329Z,46.11
2018-03-26T09:05:10.255Z,46.29
2018-03-26T09:07:38.062Z,46.17
2018-03-26T09:10:05.929Z,46.53
2018-03-26T09:12:33.654Z,46.42
2018-03-26T09:15:01.405Z,46.26
2018-03-26T09:17:29.229Z,46.71
2018-03-26T09:19:57.192Z,48.27
2018-03-26T09:22:24.957Z,48.44
2018-03-26T09:24:52.723Z,48.76
2018-03-26T09:27:20.459Z,48.33
2018-03-26T09:29:48.198Z,48.48
2018-03-26T09:32:16.023Z,48.60
2018-03-26T09:34:43.836Z,48.33
2018-03-26T09:37:11.642Z,48.80
2018-03-26T09:39:39.375Z,49.15
2018-03-26T09:42:07.189Z,49.44
2018-03-26T09:44:34.997Z,49.35
2018-03-26T09:47:02.809Z,48.90
2018-03-26T09:49:30.670Z,48.83
2018-03-26T09:51:58.400Z,48.10
2018-03-26T09:54:26.164Z,48.10
2018-03-26T09:56:53.969Z,47.69
2018-03-26T09:59:21.831Z,46.90
2018-03-26T10:01:55.190Z,48.48
2018-03-26T10:04:22.991Z,49.83
2018-03-26T10:06:50.759Z,48.62
2018-03-26T10:09:18.628Z,48.46
2018-03-26T10:11:46.330Z,47.80
2018-03-26T10:14:14.152Z,47.72
2018-03-26T10:16:41.918Z,47.77
2018-03-26T10:19:09.649Z,47.27
2018-03-26T10:21:37.456Z,45.84
2018-03-26T10:24:05.291Z,45.77
2018-03-26T10:26:33.027Z,44.93
2018-03-26T10:29:00.794Z,44.45
2018-03-26T10:31:28.605Z,43.26
2018-03-26T10:33:56.472Z,43.15
2018-03-26T10:36:24.201Z,41.16
2018-03-26T10:38:52.001Z,41.19
2018-03-26T10:41:19.764Z,40.36
2018-03-26T10:43:47.636Z,38.90
2018-03-26T10:46:15.500Z,38.28
2018-03-26T10:48:43.366Z,37.58
2018-03-26T10:51:11.092Z,38.32
2018-03-26T10:53:38.899Z,38.39
2018-03-26T10:56:06.726Z,36.85
2018-03-26T10:58:34.464Z,34.92
2018-03-26T11:01:02.187Z,35.35
2018-03-26T11:03:30.067Z,35.34
2018-03-26T11:05:57.824Z,33.70
2018-03-26T11:08:25.565Z,33.12
2018-03-26T11:10:53.349Z,33.35
2018-03-26T11:13:21.093Z,33.94
2018-03-26T11:15:48.834Z,33.73
2018-03-26T11:18:16.641Z,33.84
2018-03-26T11:20:44.507Z,34.13
2018-03-26T11:23:12.235Z,33.97
2018-03-26T11:25:40.038Z,33.86
2018-03-26T11:28:07.903Z,34.59
2018-03-26T11:30:35.711Z,33.17
2018-03-26T11:33:03.431Z,32.14
2018-03-26T11:35:31.197Z,32.91
2018-03-26T11:37:58.969Z,33.15
2018-03-26T11:40:26.830Z,34.26
2018-03-26T11:42:54.592Z,36.09
2018-03-26T11:45:22.459Z,36.01
2018-03-26T11:47:50.179Z,36.46
2018-03-26T11:50:17.881Z,36.22
2018-03-26T11:52:45.610Z,35.44
2018-03-26T11:55:13.359Z,34.25
2018-03-26T11:57:41.068Z,35.00
2018-03-26T12:00:08.841Z,35.37
2018-03-26T12:02:36.609Z,36.18
2018-03-26T12:05:04.474Z,35.71
2018-03-26T12:07:32.193Z,35.05
2018-03-26T12:10:00.001Z,35.03
2018-03-26T12:12:27.779Z,34.40
2018-03-26T12:14:55.539Z,34.03
2018-03-26T12:17:23.294Z,33.31
2018-03-26T12:22:55.079Z,33.58
2018-03-26T12:25:23.056Z,34.25
2018-03-26T12:30:56.665Z,34.72
2018-03-26T12:33:24.390Z,34.85
2018-03-26T12:35:59.888Z,34.74
2018-03-26T12:38:27.530Z,34.56
2018-03-26T12:40:58.117Z,32.63
2018-03-26T12:43:25.886Z,33.24
2018-03-26T12:46:05.472Z,33.11
2018-03-26T12:48:33.236Z,33.50
2018-03-26T12:51:13.095Z,32.54
2018-03-26T12:53:40.881Z,32.85
2018-03-26T12:56:08.718Z,32.55
2018-03-26T12:58:45.079Z,31.40
2018-03-26T13:01:24.836Z,30.19
2018-03-26T13:03:52.489Z,30.08
2018-03-26T13:06:20.306Z,30.36
2018-03-26T13:08:48.120Z,30.88
2018-03-26T13:11:15.986Z,31.87
2018-03-26T13:13:43.728Z,31.20
2018-03-26T13:16:11.515Z,30.84
2018-03-26T13:18:39.280Z,29.48
2018-03-26T13:21:07.147Z,29.53
2018-03-26T13:23:34.911Z,29.81
2018-03-26T13:26:02.779Z,28.34
2018-03-26T13:28:30.507Z,28.05
2018-03-26T13:30:58.254Z,28.58
2018-03-26T13:33:26.071Z,28.28
2018-03-26T13:35:53.939Z,28.11
2018-03-26T13:38:21.655Z,28.74
2018-03-26T13:40:49.472Z,29.87
2018-03-26T13:43:17.231Z,29.20
2018-03-26T13:45:45.082Z,29.27
2018-03-26T13:48:12.864Z,28.70
2018-03-26T13:50:40.730Z,28.88
2018-03-26T13:53:08.384Z,28.95
2018-03-26T13:55:36.112Z,27.61
2018-03-26T13:58:03.921Z,26.91
2018-03-26T14:00:31.788Z,27.37
2018-03-26T14:02:59.552Z,27.77
2018-03-26T14:05:27.419Z,26.53
2018-03-26T14:07:55.151Z,26.36
2018-03-26T14:10:34.620Z,26.82
2018-03-26T14:13:14.307Z,26.48
2018-03-26T14:15:53.813Z,26.70
2018-03-26T14:18:21.575Z,27.32
2018-03-26T14:20:49.329Z,27.24
2018-03-26T14:23:17.093Z,27.34
2018-03-26T14:25:45.078Z,27.61
2018-03-26T14:28:12.783Z,27.37
2018-03-26T14:30:40.553Z,27.47
2018-03-26T14:33:08.359Z,27.78
2018-03-26T14:35:43.781Z,27.83
2018-03-26T14:38:11.569Z,27.48
2018-03-26T14:40:39.436Z,26.46
2018-03-26T14:43:07.211Z,25.53
2018-03-26T14:45:35.169Z,25.57
2018-03-26T14:48:03.038Z,25.08
2018-03-26T14:50:30.800Z,24.83
2018-03-26T14:52:58.623Z,24.79
2018-03-26T14:55:26.436Z,24.35
2018-03-26T14:57:54.298Z,23.67
2018-03-26T15:00:22.062Z,24.30
2018-03-26T15:02:50.057Z,24.05
2018-03-26T15:05:17.810Z,24.39
2018-03-26T15:07:45.632Z,24.55
2018-03-26T15:10:13.387Z,23.75
2018-03-26T15:12:41.089Z,24.11
2018-03-26T15:15:08.854Z,23.89
2018-03-26T15:17:36.690Z,24.07
2018-03-26T15:20:04.490Z,23.63
2018-03-26T15:22:32.354Z,23.74
2018-03-26T15:25:00.117Z,23.47
2018-03-26T15:27:28.036Z,23.25
2018-03-26T15:29:55.748Z,22.57
2018-03-26T15:32:23.629Z,22.62
2018-03-26T15:34:51.392Z,22.69
2018-03-26T15:37:19.348Z,23.13
2018-03-26T15:39:47.067Z,23.02
2018-03-26T15:42:14.776Z,22.25
2018-03-26T15:44:42.540Z,22.00
2018-03-26T15:47:10.407Z,22.71
2018-03-26T15:49:38.278Z,22.89
2018-03-26T15:52:06.139Z,23.14
2018-03-26T15:54:33.911Z,23.29
2018-03-26T15:57:01.745Z,23.10
2018-03-26T15:59:29.536Z,23.55
2018-03-26T16:01:56.787Z,24.02
2018-03-26T16:04:24.552Z,24.84
2018-03-26T16:06:52.420Z,25.93
2018-03-26T16:09:20.146Z,26.72
2018-03-26T16:11:47.946Z,27.25
2018-03-26T16:14:15.685Z,27.33
2018-03-26T16:16:43.478Z,27.48
2018-03-26T16:19:11.242Z,27.61
2018-03-26T16:21:39.107Z,27.35
2018-03-26T16:24:06.823Z,27.40
2018-03-26T16:26:34.634Z,27.66
2018-03-26T16:29:02.416Z,28.19
2018-03-26T16:31:30.267Z,28.44
2018-03-26T16:33:57.944Z,28.59
2018-03-26T16:36:25.801Z,28.37
2018-03-26T16:38:53.458Z,28.23
2018-03-26T16:41:33.307Z,28.05
2018-03-26T16:44:01.073Z,28.22
2018-03-26T16:46:28.938Z,28.79
2018-03-26T16:48:56.708Z,28.62
2018-03-26T16:51:24.368Z,28.61
2018-03-26T16:53:52.127Z,28.93
2018-03-26T16:56:19.894Z,28.86
2018-03-26T16:58:47.760Z,28.88
2018-03-26T17:01:15.497Z,29.04
2018-03-26T17:03:43.359Z,28.92
2018-03-26T17:06:11.157Z,29.17
2018-03-26T17:08:39.024Z,29.54
2018-03-26T17:11:06.716Z,29.93
2018-03-26T17:13:34.556Z,29.94
2018-03-26T17:16:02.316Z,29.89
2018-03-26T17:18:30.190Z,29.90
2018-03-26T17:20:57.947Z,29.64
2018-03-26T17:23:25.815Z,29.90
2018-03-26T17:25:53.530Z,30.08
2018-03-26T17:28:21.283Z,29.84
2018-03-26T17:30:49.109Z,29.89
2018-03-26T17:33:17.011Z,29.98
2018-03-26T17:35:44.943Z,30.06
2018-03-26T17:38:12.816Z,29.88
2018-03-26T17:40:40.577Z,29.53
2018-03-26T17:43:08.243Z,29.56
2018-03-26T17:45:35.959Z,29.25
2018-03-26T17:48:03.973Z,28.89
2018-03-26T17:50:31.738Z,28.27
2018-03-26T17:52:59.690Z,27.86
2018-03-26T17:55:27.471Z,27.80
2018-03-26T17:57:55.335Z,28.05
2018-03-26T18:00:23.045Z,27.02
2018-03-26T18:02:50.901Z,27.17
2018-03-26T18:05:18.629Z,27.31
2018-03-26T18:07:46.458Z,27.29
2018-03-26T18:10:14.161Z,27.62
2018-03-26T18:12:42.023Z,27.57
2018-03-26T18:15:09.736Z,27.57
2018-03-26T18:17:37.513Z,27.83
2018-03-26T18:20:05.393Z,27.78
2018-03-26T18:22:33.189Z,27.85
2018-03-26T18:25:00.903Z,27.97
2018-03-26T18:27:28.713Z,28.17
2018-03-26T18:29:56.375Z,27.92
2018-03-26T18:32:24.139Z,28.26
2018-03-26T18:34:51.868Z,28.45
2018-03-26T18:37:19.612Z,28.57
2018-03-26T18:39:47.331Z,29.06
2018-03-26T18:42:15.094Z,29.37
2018-03-26T18:44:42.961Z,29.83
2018-03-26T18:47:10.726Z,29.68
2018-03-26T18:49:38.696Z,29.91
2018-03-26T18:52:06.410Z,29.82
2018-03-26T18:54:34.224Z,29.95
2018-03-26T18:57:02.002Z,30.23
2018-03-26T18:59:29.856Z,30.46
2018-03-26T19:01:57.620Z,30.43
2018-03-26T19:04:25.487Z,30.78
2018-03-26T19:06:53.144Z,31.07
2018-03-26T19:09:20.812Z,30.97
2018-03-26T19:11:48.468Z,31.17
2018-03-26T19:14:16.236Z,31.76
2018-03-26T19:16:43.973Z,32.00
2018-03-26T19:19:11.766Z,32.09
2018-03-26T19:21:39.530Z,32.30
2018-03-26T19:24:07.298Z,32.29
2018-03-26T19:26:35.058Z,32.59
2018-03-26T19:29:02.788Z,32.95
2018-03-26T19:31:30.553Z,33.04
2018-03-26T19:33:58.264Z,33.41
2018-03-26T19:36:25.917Z,33.39
2018-03-26T19:38:53.747Z,33.59
2018-03-26T19:41:21.544Z,33.55
2018-03-26T19:43:49.255Z,33.40
2018-03-26T19:46:16.971Z,33.16
2018-03-26T19:48:44.814Z,33.31
2018-03-26T19:51:12.679Z,33.43
2018-03-26T19:53:40.468Z,33.41
2018-03-26T19:56:08.184Z,33.42
2018-03-26T19:58:35.997Z,33.47
2018-03-26T20:01:03.762Z,33.25
2018-03-26T20:03:31.628Z,33.10
2018-03-26T20:05:59.355Z,32.90
2018-03-26T20:08:27.161Z,32.94
2018-03-26T20:10:54.860Z,32.69
2018-03-26T20:13:22.682Z,32.75
2018-03-26T20:15:50.444Z,32.78
2018-03-26T20:18:18.111Z,33.07
2018-03-26T20:20:45.987Z,33.04
2018-03-26T20:23:13.888Z,32.87
2018-03-26T20:25:41.717Z,32.80
2018-03-26T20:28:09.587Z,33.17
2018-03-26T20:30:37.345Z,33.27
2018-03-26T20:33:05.211Z,33.17
2018-03-26T20:35:32.976Z,33.30
2018-03-26T20:38:00.817Z,33.43
2018-03-26T20:40:28.662Z,33.54
2018-03-26T20:42:56.368Z,33.75
2018-03-26T20:45:24.134Z,33.61
2018-03-26T20:47:51.962Z,33.78
2018-03-26T20:50:19.775Z,34.09
2018-03-26T20:52:47.437Z,34.41
2018-03-26T20:55:15.295Z,34.67
2018-03-26T20:57:42.999Z,34.45
2018-03-26T21:00:10.825Z,34.38
2018-03-26T21:02:38.533Z,34.51
2018-03-26T21:05:06.354Z,34.42
2018-03-26T21:07:34.122Z,34.38
2018-03-26T21:10:01.932Z,34.61
2018-03-26T21:12:29.714Z,35.26
2018-03-26T21:14:57.509Z,35.65
2018-03-26T21:17:25.283Z,35.89
2018-03-26T21:19:53.041Z,36.07
2018-03-26T21:22:20.704Z,36.11
2018-03-26T21:24:48.530Z,35.86
2018-03-26T21:27:16.335Z,35.74
2018-03-26T21:29:44.168Z,35.71
2018-03-26T21:32:11.953Z,35.40
2018-03-26T21:34:39.772Z,35.54
2018-03-26T21:37:07.598Z,35.64
2018-03-26T21:39:35.363Z,35.95
2018-03-26T21:42:03.023Z,36.00
2018-03-26T21:44:30.890Z,35.87
2018-03-26T21:46:58.662Z,36.89
2018-03-26T21:49:26.420Z,36.78
2018-03-26T21:51:54.136Z,36.95
2018-03-26T21:54:21.910Z,37.49
2018-03-26T21:56:49.713Z,37.51
2018-03-26T21:59:17.476Z,37.56
2018-03-26T22:01:45.248Z,37.87
2018-03-26T22:04:13.008Z,38.04
2018-03-26T22:06:40.874Z,38.26
2018-03-26T22:09:08.944Z,38.59
2018-03-26T22:11:36.709Z,38.43
2018-03-26T22:14:04.364Z,38.54
2018-03-26T22:16:32.128Z,38.52
2018-03-26T22:18:59.843Z,38.54
2018-03-26T22:21:27.659Z,38.82
2018-03-26T22:23:55.429Z,39.03
2018-03-26T22:26:23.141Z,39.64
2018-03-26T22:28:51.066Z,39.96
2018-03-26T22:31:18.825Z,40.60
2018-03-26T22:33:46.588Z,40.58
2018-03-26T22:36:14.308Z,40.60
2018-03-26T22:38:42.118Z,40.50
2018-03-26T22:41:09.881Z,40.47
2018-03-26T22:43:37.836Z,40.44
2018-03-26T22:46:05.616Z,40.60
2018-03-26T22:48:33.380Z,40.75
2018-03-26T22:51:01.145Z,40.84
2018-03-26T22:53:29.012Z,40.63
2018-03-26T22:55:56.713Z,40.79
2018-03-26T22:58:24.544Z,40.92
2018-03-26T23:00:52.310Z,41.26
2018-03-26T23:03:20.037Z,41.16
2018-03-26T23:05:47.829Z,41.01
2018-03-26T23:08:15.497Z,40.86
2018-03-26T23:10:43.219Z,41.05
2018-03-26T23:13:11.026Z,41.18
2018-03-26T23:15:38.891Z,41.14
2018-03-26T23:18:06.544Z,40.88
2018-03-26T23:20:34.208Z,41.07
2018-03-26T23:23:01.877Z,41.56
2018-03-26T23:25:29.742Z,41.81
2018-03-26T23:27:57.579Z,41.52
2018-03-26T23:30:25.275Z,41.19
2018-03-26T23:32:52.985Z,41.42
2018-03-26T23:35:20.700Z,41.60
2018-03-26T23:37:48.568Z,41.73
2018-03-26T23:40:16.284Z,41.65
2018-03-26T23:42:43.992Z,42.00
2018-03-26T23:45:11.717Z,42.29
2018-03-26T23:47:39.526Z,42.34
2018-03-26T23:50:07.390Z,42.29
2018-03-26T23:52:35.103Z,42.43
2018-03-26T23:55:02.920Z,42.71
2018-03-26T23:57:30.682Z,42.47
2018-03-26T23:59:58.448Z,42.21
